sensor_id;sensor_type;location;lat;lon;timestamp;P1;durP1;ratioP1;P2;durP2;ratioP2
3831;SDS011;12460;42.662;23.288;2023-08-24T00:06:28;15.43;;;14.07;;
3831;SDS011;12460;42.662;23.288;2023-08-24T00:21:30;15.30;;;13.90;;
3831;SDS011;12460;42.662;23.288;2023-08-24T00:36:32;14.73;;;13.33;;
3831;SDS011;12460;42.662;23.288;2023-08-24T00:51:35;15.10;;;13.60;;
3831;SDS011;12460;42.662;23.288;2023-08-24T01:06:38;15.70;;;14.10;;
3831;SDS011;12460;42.662;23.288;2023-08-24T01:21:41;13.53;;;12.27;;
3831;SDS011;12460;42.662;23.288;2023-08-24T01:36:43;15.73;;;14.23;;
3831;SDS011;12460;42.662;23.288;2023-08-24T01:51:47;16.97;;;15.27;;
3831;SDS011;12460;42.662;23.288;2023-08-24T02:06:50;15.80;;;14.30;;
3831;SDS011;12460;42.662;23.288;2023-08-24T02:21:52;15.67;;;14.17;;
3831;SDS011;12460;42.662;23.288;2023-08-24T02:36:56;16.40;;;14.80;;
3831;SDS011;12460;42.662;23.288;2023-08-24T02:51:58;16.33;;;14.77;;
3831;SDS011;12460;42.662;23.288;2023-08-24T03:07:01;16.00;;;14.30;;
3831;SDS011;12460;42.662;23.288;2023-08-24T03:22:04;20.33;;;18.00;;
3831;SDS011;12460;42.662;23.288;2023-08-24T03:37:06;21.17;;;18.97;;
3831;SDS011;12460;42.662;23.288;2023-08-24T03:52:08;23.80;;;21.23;;
3831;SDS011;12460;42.662;23.288;2023-08-24T04:07:12;26.97;;;23.50;;
3831;SDS011;12460;42.662;23.288;2023-08-24T04:22:14;31.43;;;24.60;;
3831;SDS011;12460;42.662;23.288;2023-08-24T04:37:17;30.20;;;23.57;;
3831;SDS011;12460;42.662;23.288;2023-08-24T04:52:19;28.47;;;23.67;;
3831;SDS011;12460;42.662;23.288;2023-08-24T05:07:20;29.83;;;25.07;;
3831;SDS011;12460;42.662;23.288;2023-08-24T05:22:22;28.53;;;24.20;;
3831;SDS011;12460;42.662;23.288;2023-08-24T05:37:24;26.37;;;23.07;;
3831;SDS011;12460;42.662;23.288;2023-08-24T05:52:26;24.20;;;21.23;;
3831;SDS011;12460;42.662;23.288;2023-08-24T06:07:32;27.67;;;23.57;;
3831;SDS011;12460;42.662;23.288;2023-08-24T06:22:34;26.00;;;23.27;;
3831;SDS011;12460;42.662;23.288;2023-08-24T06:37:36;20.63;;;18.70;;
3831;SDS011;12460;42.662;23.288;2023-08-24T06:52:38;18.70;;;16.80;;
3831;SDS011;12460;42.662;23.288;2023-08-24T07:07:40;17.27;;;15.60;;
3831;SDS011;12460;42.662;23.288;2023-08-24T07:22:45;16.80;;;15.40;;
3831;SDS011;12460;42.662;23.288;2023-08-24T07:37:48;18.30;;;16.63;;
3831;SDS011;12460;42.662;23.288;2023-08-24T07:52:50;17.43;;;16.00;;
3831;SDS011;12460;42.662;23.288;2023-08-24T08:07:54;18.37;;;15.93;;
3831;SDS011;12460;42.662;23.288;2023-08-24T08:22:56;17.33;;;15.97;;
3831;SDS011;12460;42.662;23.288;2023-08-24T08:37:58;16.57;;;15.17;;
3831;SDS011;12460;42.662;23.288;2023-08-24T08:53:00;17.57;;;16.07;;
3831;SDS011;12460;42.662;23.288;2023-08-24T09:08:02;17.80;;;16.20;;
3831;SDS011;12460;42.662;23.288;2023-08-24T09:23:04;18.33;;;16.93;;
3831;SDS011;12460;42.662;23.288;2023-08-24T09:53:21;16.58;;;15.25;;
3831;SDS011;12460;42.662;23.288;2023-08-24T10:08:29;16.48;;;15.23;;
3831;SDS011;12460;42.662;23.288;2023-08-24T10:23:36;14.98;;;13.93;;
3831;SDS011;12460;42.662;23.288;2023-08-24T10:38:41;16.45;;;15.13;;
3831;SDS011;12460;42.662;23.288;2023-08-24T10:53:53;14.70;;;13.65;;
3831;SDS011;12460;42.662;23.288;2023-08-24T11:09:07;16.87;;;15.50;;
3831;SDS011;12460;42.662;23.288;2023-08-24T11:24:17;15.30;;;13.93;;
3831;SDS011;12460;42.662;23.288;2023-08-24T11:39:20;16.13;;;14.80;;
3831;SDS011;12460;42.662;23.288;2023-08-24T11:54:24;12.93;;;12.00;;
3831;SDS011;12460;42.662;23.288;2023-08-24T12:09:28;13.70;;;12.60;;
3831;SDS011;12460;42.662;23.288;2023-08-24T12:24:31;13.30;;;12.30;;
3831;SDS011;12460;42.662;23.288;2023-08-24T12:39:36;13.80;;;12.70;;
3831;SDS011;12460;42.662;23.288;2023-08-24T12:54:39;13.53;;;12.40;;
3831;SDS011;12460;42.662;23.288;2023-08-24T13:09:41;15.83;;;14.33;;
3831;SDS011;12460;42.662;23.288;2023-08-24T13:24:42;16.50;;;14.93;;
3831;SDS011;12460;42.662;23.288;2023-08-24T13:39:45;18.60;;;16.80;;
3831;SDS011;12460;42.662;23.288;2023-08-24T13:54:48;17.97;;;16.40;;
3831;SDS011;12460;42.662;23.288;2023-08-24T14:10:03;16.60;;;15.10;;
3831;SDS011;12460;42.662;23.288;2023-08-24T14:25:07;15.90;;;14.53;;
3831;SDS011;12460;42.662;23.288;2023-08-24T14:40:09;16.50;;;15.07;;
3831;SDS011;12460;42.662;23.288;2023-08-24T14:55:11;14.10;;;12.80;;
3831;SDS011;12460;42.662;23.288;2023-08-24T15:10:14;14.53;;;13.23;;
3831;SDS011;12460;42.662;23.288;2023-08-24T15:25:17;14.40;;;12.93;;
3831;SDS011;12460;42.662;23.288;2023-08-24T15:40:19;13.00;;;11.97;;
3831;SDS011;12460;42.662;23.288;2023-08-24T15:55:20;12.60;;;11.60;;
3831;SDS011;12460;42.662;23.288;2023-08-24T16:10:22;14.20;;;12.40;;
3831;SDS011;12460;42.662;23.288;2023-08-24T16:25:25;13.23;;;12.03;;
3831;SDS011;12460;42.662;23.288;2023-08-24T16:40:27;11.77;;;10.77;;
3831;SDS011;12460;42.662;23.288;2023-08-24T16:55:29;12.77;;;11.77;;
3831;SDS011;12460;42.662;23.288;2023-08-24T17:10:31;13.30;;;12.07;;
3831;SDS011;12460;42.662;23.288;2023-08-24T17:25:37;14.77;;;13.43;;
3831;SDS011;12460;42.662;23.288;2023-08-24T17:40:39;16.13;;;14.60;;
3831;SDS011;12460;42.662;23.288;2023-08-24T17:55:54;16.30;;;14.80;;
3831;SDS011;12460;42.662;23.288;2023-08-24T18:11:00;22.67;;;20.40;;
3831;SDS011;12460;42.662;23.288;2023-08-24T18:26:05;16.70;;;15.30;;
3831;SDS011;12460;42.662;23.288;2023-08-24T18:41:07;19.13;;;17.33;;
3831;SDS011;12460;42.662;23.288;2023-08-24T18:56:09;16.93;;;15.43;;
3831;SDS011;12460;42.662;23.288;2023-08-24T19:11:11;18.03;;;16.33;;
3831;SDS011;12460;42.662;23.288;2023-08-24T19:26:13;19.93;;;17.57;;
3831;SDS011;12460;42.662;23.288;2023-08-24T19:41:15;19.03;;;17.23;;
3831;SDS011;12460;42.662;23.288;2023-08-24T19:56:17;18.17;;;16.30;;
3831;SDS011;12460;42.662;23.288;2023-08-24T20:11:19;21.33;;;19.23;;
3831;SDS011;12460;42.662;23.288;2023-08-24T20:26:22;19.47;;;17.47;;
3831;SDS011;12460;42.662;23.288;2023-08-24T20:41:24;19.60;;;17.80;;
3831;SDS011;12460;42.662;23.288;2023-08-24T20:56:26;19.33;;;17.60;;
3831;SDS011;12460;42.662;23.288;2023-08-24T21:11:28;17.07;;;15.57;;
3831;SDS011;12460;42.662;23.288;2023-08-24T21:26:30;19.23;;;17.43;;
3831;SDS011;12460;42.662;23.288;2023-08-24T21:41:32;19.37;;;17.47;;
3831;SDS011;12460;42.662;23.288;2023-08-24T21:56:33;18.80;;;17.00;;
3831;SDS011;12460;42.662;23.288;2023-08-24T22:11:35;18.97;;;17.17;;
3831;SDS011;12460;42.662;23.288;2023-08-24T22:26:37;18.53;;;16.57;;
3831;SDS011;12460;42.662;23.288;2023-08-24T22:41:40;18.83;;;16.93;;
3831;SDS011;12460;42.662;23.288;2023-08-24T22:56:42;17.93;;;16.13;;
3831;SDS011;12460;42.662;23.288;2023-08-24T23:11:44;18.40;;;16.70;;
3831;SDS011;12460;42.662;23.288;2023-08-24T23:26:46;18.80;;;16.27;;
3831;SDS011;12460;42.662;23.288;2023-08-24T23:41:48;18.33;;;16.63;;
3831;SDS011;12460;42.662;23.288;2023-08-24T23:56:50;19.97;;;18.07;;
